Member area
Imprimable
Dinant, 02/10/2016, BEL - Trail de Saint Jacques de Compostelle en Province de Namur
List of reports > 13 km - Classement
Search: Page: [1]
101 Entries
 
Complains are not accepted anymore. Results are final.
PlaceNrNameAgeNATLeagueTeamRealTimeTkmMoy.ScrCity
1.41DENEFFE GUILLAUME33BEL1:00:481:00:484:41 12.831NAMUR
2.56FACQ GREGORY40BEL1:06:411:06:415:08 11.702WALHAIN
3.832VACCARELLA LUCKY29BEL1:07:271:07:275:12 11.573EMBOURG
4.5BASTIN EMILIEN16BEL1:07:501:07:505:14 11.504HEER
5.43DERVAUX PHILIPPE42BEL1:08:131:08:135:15 11.445RIVIÈRE
6.833VAN BENEDEN XAVIER46BEL1:08:141:08:145:15 11.436SPRIMONT
7.50DUBOIS TANGUY43BEL1:09:591:09:595:23 11.157CINEY
8.926LEGRAND MAXIMEBEL1:10:451:10:455:27 11.028
9.70GRANJDEAN BENOIT48BEL1:11:101:11:105:29 10.969PROFONDEVILLE
10.151TACK HUGO59BEL1:11:321:11:325:31 10.9011SINT-NIKLAAS
11.174BAUMGARTNER DAVID41FRASCHAEFFLER1:11:551:11:555:32 10.8512WALTENHEIM
12.834VAN LANDUYT CLEMENT24BEL1:12:551:12:555:37 10.7013BEAURAING
13.13BRY OLIVIER26BEL1:12:591:12:595:37 10.6914ROBECHIES
14.911SERVOTTE BENOIT25BEL1:13:011:13:015:37 10.6815WALCOURT
15.817MORIAME BENJAMIN34BEL1:13:441:13:445:41 10.5816DAVE
16.166WIBRIN XAVIER34BEL1:14:431:14:435:45 10.4417NEUFCHATEAU
17.171BADDA RACHID32FRASCHAEFFLER1:15:461:15:465:50 10.3018BISCHWILLER
18.200JEWELL NATAM42BEL1:16:271:16:275:53 10.2019COLFONTAINE
19.846DEROCK JÉRÉMY31BEL1:16:341:16:345:54 10.1920MOUSCRON
20.839ZINCK RALPH47FRASCHAEFFLER1:17:051:17:055:56 10.1221SCHWEIGHOUSE SUR MODER
21.87JOUNIAUX CHRISTOPHE42BEL1:17:111:17:115:57 10.1122STAVE
22.803LALOYAUX XAVIER32BEL1:17:231:17:235:58 10.0823GRAND-MANIL
23.158VANESSE HUGUES32BEL1:17:311:17:315:58 10.0624ACOSSE
24.828STEFFEN RAYMOND51FRASCHAEFFLER1:18:251:18:256:02 9.9525OHLUNGEN
25.98LIBEER CASSIAN25BEL1:19:591:19:596:10 9.7527TILLY
26.195GRACZYK ADRIEN17BEL1:20:051:20:056:10 9.7428BEAURAING
27.96LELARGE GUILLAUME43FRA1:20:161:20:166:11 9.7229LILLE
28.72GUILMOT MATTHIEU24BEL1:20:211:20:216:11 9.7130NAMUR
29.117NICOLAS QUENTIN28BEL1:20:481:20:486:13 9.6531BLEHEN
30.121NYSSEN MARC35BEL1:21:181:21:186:16 9.5932FLORIFFOUX
31.821RAMEAU STEPHEN41BEL1:21:191:21:196:16 9.5933EUGIES
32.816MATHY BERTRAND32BEL1:21:461:21:466:18 9.5434VELAINE
33.76HÉBETTE BERTO40BEL1:22:081:22:086:20 9.5036COURTISE
34.838WILLIAUME WILLIAM40BEL1:22:241:22:246:21 9.4737EUGIES
35.805LANGHENDRIES FRANÇOIS32BEL1:22:301:22:306:21 9.4638GESVES
36.120NOTEZ CLAUDE45BEL1:22:371:22:376:22 9.4439THY-LE-BAUDUIN
37.123PAPROCKI STÉPHANE38BEL1:23:221:23:226:25 9.3640TEMPLOUX
38.155VAN DEN BULCKE STEVEN40BEL1:23:551:23:556:28 9.3041BELSELE
39.144SIX THOMAS33BEL1:24:121:24:126:29 9.2744ANSEREMME
40.190DETRY BRUNO38BEL1:24:311:24:316:31 9.2345LIGNIERES
41.30COULON CÉDRIC42BEL1:24:551:24:556:32 9.1946CHASTRÈS
42.35DAUVISTER GILLES35BEL1:25:391:25:396:36 9.1147WAVRE
43.193FLOYMONT OLIVIER50BEL1:26:071:26:076:38 9.0649ANDENNE
44.168ALVAREZ XAVIER48FRASCHAEFFLER1:26:311:26:316:40 9.0251KALTENHOUSE
45.21CLONAN EMILIEN33FRA1:27:581:27:586:46 8.8754FOY-NOTRE-DAME
46.116NICOLAS ANTOINE22BEL1:28:011:28:016:47 8.8656BLEHEN
47.137ROMEDENNE FRANÇOIS39BEL1:29:101:29:106:52 8.7558NATOYE
48.45DEWEZ LIONEL37BEL1:29:111:29:116:52 8.7559EVERE
49.140SÉBASTIEN LAMBERT33BEL1:29:321:29:326:54 8.7161NAMECHE
50.811LEMAÎTRE SÉBASTIEN38BEL1:29:511:29:516:55 8.6862LIÈGE
51.105LURQUIN ARTHUR19BEL1:30:021:30:026:56 8.6663JUMET
52.42DENIS GREGORY45BEL1:30:311:30:316:58 8.6264CHERCQ
53.150STOCK JF46BEL1:30:391:30:396:59 8.6066GESVES
54.192DUPUIS PASCAL48BEL1:31:161:31:167:02 8.5568HALTINNE
55.104LURKIN GEOFFREY26BEL1:32:121:32:127:06 8.4673RANCE
56.180COLOT LUDO40BEL1:32:291:32:297:07 8.4374BIOUL
57.199JANTON STÉPHANE43BEL1:32:381:32:387:08 8.4275DINANT
58.820PINGET CLÉMENT35FRA1:33:121:33:127:11 8.3779GEMBLOUX
59.33DAFFE PHILIPPE55BEL1:33:401:33:407:13 8.3381CINEY
60.162VASSALLE DAVID44FRA1:34:511:34:517:18 8.2284AMIENS
61.92LACHAT ERIC41FRA1:34:531:34:537:18 8.2285FOUILLOY
62.932TAYLOR JAMESBEL1:35:001:35:007:19 8.2186
63.173BAUDOIN GWENAEL33BEL1:35:111:35:117:20 8.1987DORINNE
64.94LAMBOTTE FABRICE46BEL1:35:181:35:187:20 8.1888PROFONDEVILLE
65.929GREGOIRE JOANBEL1:36:001:36:007:24 8.1390
66.52DUCULOT MAXIME12BEL1:36:131:36:137:25 8.1193ORP-LE-G
67.36DEBAISIEUX LAURENT48FRA1:36:171:36:177:25 8.1094BULLY-LES-MINES
68.840STERK MANUEL31BEL1:36:191:36:197:25 8.1095
69.46DOCK THIERRY47BEL1:37:261:37:267:30 8.0198JAMBES
70.63GELDERS ANTOINE18BEL1:37:461:37:467:32 7.98100WEZEMBEEK-OPPEM
71.113MINET FREDDY63BEL1:38:211:38:217:34 7.93103DENÉE
72.71GUÉRAN BENOIT26FRA1:40:091:40:097:43 7.79106BRUXELLES
73.28COSTENARO ROBERT61BEL1:40:591:40:597:47 7.72108BONCELLES
74.808LAVAL ARNAUD39BEL1:43:051:43:057:56 7.57117CIPLET
75.824ROGER PAUL26FRA1:45:421:45:428:08 7.38131BRUXELLES
76.90KELDERMANS STEPHANE48BEL1:47:381:47:388:17 7.25137VEDRIN
77.807LAUNE JEAN-MARC59BEL1:47:401:47:408:17 7.25138FRAMERIES
78.924LAMY THIERRY53BEL1:48:251:48:258:21 7.20140WELLIN
79.850ROLAND PIERRE-HENRI33BEL1:48:551:48:558:23 7.16143
80.931BAUFAY GIL36BEL1:49:141:49:148:25 7.14145JONCRET
81.64GELDERS PHILIPPE53BEL1:49:161:49:168:25 7.14146WEZEMBEEK-OPPEM
82.1ABELS BERTRAND44BEL1:50:021:50:028:28 7.09149SPY
83.106LURQUIN BENOIT53BEL1:50:081:50:088:29 7.08150JUMET
84.85JANSSEN YVES53FRA1:50:321:50:328:31 7.06152NAMUR
85.802LAHAYE PHILIPPE52BELLES AMIS DE SŒUR EMMANUEL1:50:381:50:388:31 7.05155GREZ
86.73HACHEZ ERIC50BEL1:53:191:53:198:43 6.88165STRÉPY-BRACQUGNIES
87.125PEDROTTI LAURENT40FRA1:54:241:54:248:48 6.82169CINEY
88.157VANDER WALLE JONATHAN26BEL1:55:101:55:108:52 6.77175BRAINE L'ALLEUD
89.152TERESI HENRI52BEL1:56:021:56:028:56 6.72180BIOUL
90.127PERA FRANÇOIS30BEL1:56:041:56:048:56 6.72181SAINT-MARC
91.130PINOY FABIAN46BEL1:56:221:56:228:58 6.70184SENEFFE
92.133RECOLET ERIC54FRA1:56:311:56:318:58 6.69187SECLIN
93.26CORBIAUX CHRISTOPHE37BEL1:56:441:56:448:59 6.68188BOIS-DE-VILLERS
94.89JULEMONT CHRISTOPHE46BEL1:56:581:56:589:00 6.67189NAMUR
95.25CORBIAUX BENJAMIN31BEL1:59:251:59:259:12 6.53195BOIS-DE-VILLERS
96.55ESPREUX SEBASTIEN38BEL2:11:512:11:5110:09 5.92209ROCROI
97.170ARNOULD NICOLAS29BEL2:15:232:15:2310:25 5.76211BRUXELLES
98.165VOLKAERT VINCENT45BEL2:20:262:20:2610:49 5.55214GOZÉE
99.804LAMBERT JEROME G39BEL2:22:452:22:4510:59 5.46215VEDRIN
DSQ847GRÉGOIRE JOAN46BEL1:01:371:01:37NAMUR
DNF922VIS GASPARDBEL
DNF: did not finish; DSQ: disqualified; Speed in km/h
Page: [1]